sensor_id;sensor_type;location;lat;lon;timestamp;P1;durP1;ratioP1;P2;durP2;ratioP2
15228;SDS011;7717;47.792;12.076;2024-01-16T00:00:54;4.60;;;2.73;;
15228;SDS011;7717;47.792;12.076;2024-01-16T00:03:19;4.30;;;2.43;;
15228;SDS011;7717;47.792;12.076;2024-01-16T00:05:45;4.80;;;2.50;;
15228;SDS011;7717;47.792;12.076;2024-01-16T00:08:10;3.00;;;2.30;;
15228;SDS011;7717;47.792;12.076;2024-01-16T00:10:36;3.80;;;2.20;;
15228;SDS011;7717;47.792;12.076;2024-01-16T00:13:01;2.83;;;2.27;;
15228;SDS011;7717;47.792;12.076;2024-01-16T00:15:27;2.30;;;2.10;;
15228;SDS011;7717;47.792;12.076;2024-01-16T00:17:52;3.03;;;2.67;;
15228;SDS011;7717;47.792;12.076;2024-01-16T00:20:18;2.83;;;2.60;;
15228;SDS011;7717;47.792;12.076;2024-01-16T00:22:43;3.77;;;2.80;;
15228;SDS011;7717;47.792;12.076;2024-01-16T00:25:09;1.43;;;1.23;;
15228;SDS011;7717;47.792;12.076;2024-01-16T00:27:34;5.27;;;3.03;;
15228;SDS011;7717;47.792;12.076;2024-01-16T00:30:03;3.20;;;2.40;;
15228;SDS011;7717;47.792;12.076;2024-01-16T00:32:29;2.73;;;2.07;;
15228;SDS011;7717;47.792;12.076;2024-01-16T00:34:54;2.43;;;1.90;;
15228;SDS011;7717;47.792;12.076;2024-01-16T00:37:20;2.57;;;2.33;;
15228;SDS011;7717;47.792;12.076;2024-01-16T00:39:45;3.47;;;2.80;;
15228;SDS011;7717;47.792;12.076;2024-01-16T00:42:11;5.40;;;2.70;;
15228;SDS011;7717;47.792;12.076;2024-01-16T00:44:36;3.70;;;2.10;;
15228;SDS011;7717;47.792;12.076;2024-01-16T00:47:01;2.20;;;2.00;;
15228;SDS011;7717;47.792;12.076;2024-01-16T00:49:27;5.87;;;3.07;;
15228;SDS011;7717;47.792;12.076;2024-01-16T00:51:54;2.30;;;2.10;;
15228;SDS011;7717;47.792;12.076;2024-01-16T00:54:19;1.40;;;1.27;;
15228;SDS011;7717;47.792;12.076;2024-01-16T00:56:44;3.47;;;2.73;;
15228;SDS011;7717;47.792;12.076;2024-01-16T00:59:10;4.27;;;2.30;;
15228;SDS011;7717;47.792;12.076;2024-01-16T01:01:37;4.30;;;2.40;;
15228;SDS011;7717;47.792;12.076;2024-01-16T01:04:03;3.07;;;2.30;;
15228;SDS011;7717;47.792;12.076;2024-01-16T01:06:28;2.67;;;2.30;;
15228;SDS011;7717;47.792;12.076;2024-01-16T01:08:53;2.97;;;2.20;;
15228;SDS011;7717;47.792;12.076;2024-01-16T01:11:19;2.27;;;1.97;;
15228;SDS011;7717;47.792;12.076;2024-01-16T01:13:44;2.10;;;1.90;;
15228;SDS011;7717;47.792;12.076;2024-01-16T01:16:10;3.97;;;3.13;;
15228;SDS011;7717;47.792;12.076;2024-01-16T01:18:35;1.70;;;1.60;;
15228;SDS011;7717;47.792;12.076;2024-01-16T01:21:00;2.80;;;2.30;;
15228;SDS011;7717;47.792;12.076;2024-01-16T01:23:26;3.40;;;2.70;;
15228;SDS011;7717;47.792;12.076;2024-01-16T01:25:54;1.40;;;1.30;;
15228;SDS011;7717;47.792;12.076;2024-01-16T01:28:20;4.17;;;2.60;;
15228;SDS011;7717;47.792;12.076;2024-01-16T01:30:45;3.33;;;2.70;;
15228;SDS011;7717;47.792;12.076;2024-01-16T01:33:11;3.03;;;2.77;;
15228;SDS011;7717;47.792;12.076;2024-01-16T01:35:37;2.37;;;1.50;;
15228;SDS011;7717;47.792;12.076;2024-01-16T01:38:02;2.17;;;1.97;;
15228;SDS011;7717;47.792;12.076;2024-01-16T01:40:28;5.47;;;3.03;;
15228;SDS011;7717;47.792;12.076;2024-01-16T01:42:53;2.73;;;1.97;;
15228;SDS011;7717;47.792;12.076;2024-01-16T01:45:19;3.67;;;2.87;;
15228;SDS011;7717;47.792;12.076;2024-01-16T01:47:44;2.67;;;2.47;;
15228;SDS011;7717;47.792;12.076;2024-01-16T01:50:11;2.50;;;2.30;;
15228;SDS011;7717;47.792;12.076;2024-01-16T01:52:38;1.17;;;1.17;;
15228;SDS011;7717;47.792;12.076;2024-01-16T01:55:06;2.60;;;2.03;;
15228;SDS011;7717;47.792;12.076;2024-01-16T01:57:35;4.83;;;2.53;;
15228;SDS011;7717;47.792;12.076;2024-01-16T02:00:01;4.00;;;2.43;;
15228;SDS011;7717;47.792;12.076;2024-01-16T02:02:28;3.70;;;2.57;;
15228;SDS011;7717;47.792;12.076;2024-01-16T02:04:54;4.43;;;3.10;;
15228;SDS011;7717;47.792;12.076;2024-01-16T02:07:20;3.07;;;2.30;;
15228;SDS011;7717;47.792;12.076;2024-01-16T02:09:46;1.80;;;1.23;;
15228;SDS011;7717;47.792;12.076;2024-01-16T02:12:12;3.03;;;2.13;;
15228;SDS011;7717;47.792;12.076;2024-01-16T02:14:37;3.43;;;2.07;;
15228;SDS011;7717;47.792;12.076;2024-01-16T02:17:03;3.90;;;2.83;;
15228;SDS011;7717;47.792;12.076;2024-01-16T02:19:28;1.43;;;1.33;;
15228;SDS011;7717;47.792;12.076;2024-01-16T02:21:54;2.30;;;1.83;;
15228;SDS011;7717;47.792;12.076;2024-01-16T02:24:25;3.87;;;2.80;;
15228;SDS011;7717;47.792;12.076;2024-01-16T02:26:50;3.30;;;2.50;;
15228;SDS011;7717;47.792;12.076;2024-01-16T02:29:16;6.47;;;2.77;;
15228;SDS011;7717;47.792;12.076;2024-01-16T02:31:41;2.50;;;2.23;;
15228;SDS011;7717;47.792;12.076;2024-01-16T02:34:07;4.40;;;2.90;;
15228;SDS011;7717;47.792;12.076;2024-01-16T02:36:32;4.33;;;3.27;;
15228;SDS011;7717;47.792;12.076;2024-01-16T02:38:58;3.60;;;2.80;;
15228;SDS011;7717;47.792;12.076;2024-01-16T02:41:24;3.30;;;2.20;;
15228;SDS011;7717;47.792;12.076;2024-01-16T02:43:50;5.50;;;3.40;;
15228;SDS011;7717;47.792;12.076;2024-01-16T02:46:15;4.77;;;2.70;;
15228;SDS011;7717;47.792;12.076;2024-01-16T02:48:41;3.60;;;2.60;;
15228;SDS011;7717;47.792;12.076;2024-01-16T02:51:07;4.23;;;2.70;;
15228;SDS011;7717;47.792;12.076;2024-01-16T02:53:33;5.10;;;2.93;;
15228;SDS011;7717;47.792;12.076;2024-01-16T02:55:59;6.40;;;2.87;;
15228;SDS011;7717;47.792;12.076;2024-01-16T02:58:27;3.00;;;2.60;;
15228;SDS011;7717;47.792;12.076;2024-01-16T03:00:54;2.80;;;2.30;;
15228;SDS011;7717;47.792;12.076;2024-01-16T03:03:20;3.87;;;3.30;;
15228;SDS011;7717;47.792;12.076;2024-01-16T03:05:45;2.70;;;2.47;;
15228;SDS011;7717;47.792;12.076;2024-01-16T03:08:11;3.10;;;2.50;;
15228;SDS011;7717;47.792;12.076;2024-01-16T03:10:37;2.83;;;2.20;;
15228;SDS011;7717;47.792;12.076;2024-01-16T03:13:02;3.20;;;2.43;;
15228;SDS011;7717;47.792;12.076;2024-01-16T03:15:28;2.80;;;2.33;;
15228;SDS011;7717;47.792;12.076;2024-01-16T03:17:56;3.90;;;2.57;;
15228;SDS011;7717;47.792;12.076;2024-01-16T03:20:21;2.70;;;2.20;;
15228;SDS011;7717;47.792;12.076;2024-01-16T03:22:48;3.90;;;2.50;;
15228;SDS011;7717;47.792;12.076;2024-01-16T03:25:14;3.67;;;2.43;;
15228;SDS011;7717;47.792;12.076;2024-01-16T03:27:39;3.10;;;2.27;;
15228;SDS011;7717;47.792;12.076;2024-01-16T03:30:05;3.33;;;2.13;;
15228;SDS011;7717;47.792;12.076;2024-01-16T03:32:31;3.03;;;2.07;;
15228;SDS011;7717;47.792;12.076;2024-01-16T03:34:57;2.53;;;1.83;;
15228;SDS011;7717;47.792;12.076;2024-01-16T03:37:22;3.97;;;2.60;;
15228;SDS011;7717;47.792;12.076;2024-01-16T03:39:47;2.77;;;1.93;;
15228;SDS011;7717;47.792;12.076;2024-01-16T03:42:15;2.33;;;1.93;;
15228;SDS011;7717;47.792;12.076;2024-01-16T03:44:40;3.17;;;2.17;;
15228;SDS011;7717;47.792;12.076;2024-01-16T03:47:06;1.87;;;1.50;;
15228;SDS011;7717;47.792;12.076;2024-01-16T03:49:32;4.43;;;2.30;;
15228;SDS011;7717;47.792;12.076;2024-01-16T03:51:58;2.10;;;1.90;;
15228;SDS011;7717;47.792;12.076;2024-01-16T03:54:23;2.73;;;2.23;;
15228;SDS011;7717;47.792;12.076;2024-01-16T03:56:49;3.43;;;2.37;;
15228;SDS011;7717;47.792;12.076;2024-01-16T03:59:15;2.33;;;1.60;;
15228;SDS011;7717;47.792;12.076;2024-01-16T04:01:40;3.33;;;2.57;;
15228;SDS011;7717;47.792;12.076;2024-01-16T04:04:08;3.83;;;2.50;;
15228;SDS011;7717;47.792;12.076;2024-01-16T04:06:33;3.23;;;2.20;;
15228;SDS011;7717;47.792;12.076;2024-01-16T04:08:59;1.80;;;1.70;;
15228;SDS011;7717;47.792;12.076;2024-01-16T04:11:25;3.83;;;1.67;;
15228;SDS011;7717;47.792;12.076;2024-01-16T04:13:50;4.70;;;2.33;;
15228;SDS011;7717;47.792;12.076;2024-01-16T04:16:15;2.53;;;1.93;;
15228;SDS011;7717;47.792;12.076;2024-01-16T04:18:42;4.27;;;3.27;;
15228;SDS011;7717;47.792;12.076;2024-01-16T04:21:10;5.00;;;3.00;;
15228;SDS011;7717;47.792;12.076;2024-01-16T04:23:36;3.07;;;2.13;;
15228;SDS011;7717;47.792;12.076;2024-01-16T04:26:02;3.77;;;2.57;;
15228;SDS011;7717;47.792;12.076;2024-01-16T04:28:27;2.60;;;2.40;;
15228;SDS011;7717;47.792;12.076;2024-01-16T04:30:53;3.30;;;2.80;;
15228;SDS011;7717;47.792;12.076;2024-01-16T04:33:19;3.73;;;2.70;;
15228;SDS011;7717;47.792;12.076;2024-01-16T04:35:44;3.40;;;3.10;;
15228;SDS011;7717;47.792;12.076;2024-01-16T04:38:10;3.53;;;2.57;;
15228;SDS011;7717;47.792;12.076;2024-01-16T04:40:36;3.80;;;2.47;;
15228;SDS011;7717;47.792;12.076;2024-01-16T04:43:02;2.67;;;2.23;;
15228;SDS011;7717;47.792;12.076;2024-01-16T04:45:27;2.87;;;2.20;;
15228;SDS011;7717;47.792;12.076;2024-01-16T04:47:53;2.40;;;2.07;;
15228;SDS011;7717;47.792;12.076;2024-01-16T04:50:18;1.97;;;1.87;;
15228;SDS011;7717;47.792;12.076;2024-01-16T04:52:44;2.77;;;2.40;;
15228;SDS011;7717;47.792;12.076;2024-01-16T04:55:10;2.50;;;2.23;;
15228;SDS011;7717;47.792;12.076;2024-01-16T04:57:38;4.87;;;4.27;;
15228;SDS011;7717;47.792;12.076;2024-01-16T05:00:05;5.37;;;4.53;;
15228;SDS011;7717;47.792;12.076;2024-01-16T05:02:32;3.97;;;3.00;;
15228;SDS011;7717;47.792;12.076;2024-01-16T05:04:58;2.73;;;2.53;;
15228;SDS011;7717;47.792;12.076;2024-01-16T05:07:24;3.90;;;3.47;;
15228;SDS011;7717;47.792;12.076;2024-01-16T05:09:49;4.70;;;3.70;;
15228;SDS011;7717;47.792;12.076;2024-01-16T05:12:15;6.23;;;4.30;;
15228;SDS011;7717;47.792;12.076;2024-01-16T05:14:40;4.23;;;3.67;;
15228;SDS011;7717;47.792;12.076;2024-01-16T05:17:05;4.43;;;3.30;;
15228;SDS011;7717;47.792;12.076;2024-01-16T05:19:31;5.33;;;3.83;;
15228;SDS011;7717;47.792;12.076;2024-01-16T05:21:57;5.30;;;3.53;;
15228;SDS011;7717;47.792;12.076;2024-01-16T05:24:22;4.10;;;2.63;;
15228;SDS011;7717;47.792;12.076;2024-01-16T05:26:48;3.00;;;2.50;;
15228;SDS011;7717;47.792;12.076;2024-01-16T05:29:13;4.17;;;2.37;;
15228;SDS011;7717;47.792;12.076;2024-01-16T05:31:42;3.80;;;2.50;;
15228;SDS011;7717;47.792;12.076;2024-01-16T05:34:08;4.37;;;2.90;;
15228;SDS011;7717;47.792;12.076;2024-01-16T05:36:34;4.70;;;3.30;;
15228;SDS011;7717;47.792;12.076;2024-01-16T05:39:00;3.77;;;2.77;;
15228;SDS011;7717;47.792;12.076;2024-01-16T05:41:26;4.47;;;3.37;;
15228;SDS011;7717;47.792;12.076;2024-01-16T05:43:52;2.80;;;2.60;;
15228;SDS011;7717;47.792;12.076;2024-01-16T05:46:17;7.60;;;3.70;;
15228;SDS011;7717;47.792;12.076;2024-01-16T05:48:43;3.80;;;3.40;;
15228;SDS011;7717;47.792;12.076;2024-01-16T05:51:09;4.87;;;3.67;;
15228;SDS011;7717;47.792;12.076;2024-01-16T05:53:34;7.60;;;4.17;;
15228;SDS011;7717;47.792;12.076;2024-01-16T05:55:59;9.20;;;4.80;;
15228;SDS011;7717;47.792;12.076;2024-01-16T05:58:25;11.93;;;3.57;;
15228;SDS011;7717;47.792;12.076;2024-01-16T06:00:50;5.90;;;3.77;;
15228;SDS011;7717;47.792;12.076;2024-01-16T06:03:15;3.50;;;3.00;;
15228;SDS011;7717;47.792;12.076;2024-01-16T06:05:41;5.60;;;4.23;;
15228;SDS011;7717;47.792;12.076;2024-01-16T06:08:06;7.23;;;4.13;;
15228;SDS011;7717;47.792;12.076;2024-01-16T06:10:32;5.67;;;4.00;;
15228;SDS011;7717;47.792;12.076;2024-01-16T06:12:57;5.60;;;3.53;;
15228;SDS011;7717;47.792;12.076;2024-01-16T06:15:23;4.33;;;3.80;;
15228;SDS011;7717;47.792;12.076;2024-01-16T06:17:48;5.73;;;4.07;;
15228;SDS011;7717;47.792;12.076;2024-01-16T06:20:14;7.03;;;3.83;;
15228;SDS011;7717;47.792;12.076;2024-01-16T06:22:39;5.33;;;3.80;;
15228;SDS011;7717;47.792;12.076;2024-01-16T06:25:05;6.90;;;4.60;;
15228;SDS011;7717;47.792;12.076;2024-01-16T06:27:31;10.23;;;5.33;;
15228;SDS011;7717;47.792;12.076;2024-01-16T06:29:56;5.90;;;4.27;;
15228;SDS011;7717;47.792;12.076;2024-01-16T06:32:22;5.30;;;4.03;;
15228;SDS011;7717;47.792;12.076;2024-01-16T06:34:48;5.10;;;4.60;;
15228;SDS011;7717;47.792;12.076;2024-01-16T06:37:13;6.80;;;5.57;;
15228;SDS011;7717;47.792;12.076;2024-01-16T06:39:38;6.00;;;5.07;;
15228;SDS011;7717;47.792;12.076;2024-01-16T06:42:04;8.57;;;6.70;;
15228;SDS011;7717;47.792;12.076;2024-01-16T06:44:30;10.27;;;6.23;;
15228;SDS011;7717;47.792;12.076;2024-01-16T06:46:55;10.77;;;6.20;;
15228;SDS011;7717;47.792;12.076;2024-01-16T06:49:21;10.63;;;9.17;;
15228;SDS011;7717;47.792;12.076;2024-01-16T06:51:46;50.53;;;21.40;;
15228;SDS011;7717;47.792;12.076;2024-01-16T06:54:12;21.63;;;12.90;;
15228;SDS011;7717;47.792;12.076;2024-01-16T06:56:37;25.33;;;16.23;;
15228;SDS011;7717;47.792;12.076;2024-01-16T06:59:03;21.73;;;15.57;;
15228;SDS011;7717;47.792;12.076;2024-01-16T07:01:28;23.00;;;14.17;;
15228;SDS011;7717;47.792;12.076;2024-01-16T07:03:55;16.70;;;7.23;;
15228;SDS011;7717;47.792;12.076;2024-01-16T07:06:21;23.20;;;13.43;;
15228;SDS011;7717;47.792;12.076;2024-01-16T07:08:46;15.57;;;9.20;;
15228;SDS011;7717;47.792;12.076;2024-01-16T07:11:12;19.37;;;12.40;;
15228;SDS011;7717;47.792;12.076;2024-01-16T07:13:39;13.30;;;11.90;;
15228;SDS011;7717;47.792;12.076;2024-01-16T07:16:11;7.57;;;6.17;;
15228;SDS011;7717;47.792;12.076;2024-01-16T07:18:38;11.33;;;8.40;;
15228;SDS011;7717;47.792;12.076;2024-01-16T07:21:04;9.17;;;5.80;;
15228;SDS011;7717;47.792;12.076;2024-01-16T07:23:29;16.20;;;8.67;;
15228;SDS011;7717;47.792;12.076;2024-01-16T07:25:58;11.77;;;8.73;;
15228;SDS011;7717;47.792;12.076;2024-01-16T07:28:23;9.63;;;6.73;;
15228;SDS011;7717;47.792;12.076;2024-01-16T07:30:48;10.63;;;5.77;;
15228;SDS011;7717;47.792;12.076;2024-01-16T07:33:14;9.57;;;5.77;;
15228;SDS011;7717;47.792;12.076;2024-01-16T07:35:39;9.50;;;6.27;;
15228;SDS011;7717;47.792;12.076;2024-01-16T07:38:06;13.13;;;7.17;;
15228;SDS011;7717;47.792;12.076;2024-01-16T07:40:32;10.90;;;7.77;;
15228;SDS011;7717;47.792;12.076;2024-01-16T07:42:57;19.90;;;9.60;;
15228;SDS011;7717;47.792;12.076;2024-01-16T07:45:22;28.43;;;12.13;;
15228;SDS011;7717;47.792;12.076;2024-01-16T07:47:48;18.80;;;9.40;;
15228;SDS011;7717;47.792;12.076;2024-01-16T07:50:13;19.00;;;11.00;;
15228;SDS011;7717;47.792;12.076;2024-01-16T07:52:39;20.50;;;11.33;;
15228;SDS011;7717;47.792;12.076;2024-01-16T07:55:05;25.57;;;13.80;;
15228;SDS011;7717;47.792;12.076;2024-01-16T07:57:31;24.87;;;13.80;;
15228;SDS011;7717;47.792;12.076;2024-01-16T07:59:59;21.83;;;11.10;;
15228;SDS011;7717;47.792;12.076;2024-01-16T08:02:31;23.03;;;11.97;;
15228;SDS011;7717;47.792;12.076;2024-01-16T08:04:59;13.50;;;9.17;;
15228;SDS011;7717;47.792;12.076;2024-01-16T08:07:24;14.37;;;6.80;;
15228;SDS011;7717;47.792;12.076;2024-01-16T08:09:49;10.73;;;7.63;;
15228;SDS011;7717;47.792;12.076;2024-01-16T08:12:15;10.10;;;6.37;;
15228;SDS011;7717;47.792;12.076;2024-01-16T08:14:40;13.50;;;6.37;;
15228;SDS011;7717;47.792;12.076;2024-01-16T08:17:06;11.33;;;7.77;;
15228;SDS011;7717;47.792;12.076;2024-01-16T08:19:32;15.60;;;10.03;;
15228;SDS011;7717;47.792;12.076;2024-01-16T08:21:57;13.13;;;10.17;;
15228;SDS011;7717;47.792;12.076;2024-01-16T08:24:23;14.13;;;9.47;;
15228;SDS011;7717;47.792;12.076;2024-01-16T08:26:49;9.40;;;7.30;;
15228;SDS011;7717;47.792;12.076;2024-01-16T08:29:14;13.53;;;8.93;;
15228;SDS011;7717;47.792;12.076;2024-01-16T08:31:40;7.87;;;5.87;;
15228;SDS011;7717;47.792;12.076;2024-01-16T08:34:06;15.97;;;9.03;;
15228;SDS011;7717;47.792;12.076;2024-01-16T08:36:31;16.60;;;10.07;;
15228;SDS011;7717;47.792;12.076;2024-01-16T08:38:56;14.43;;;8.50;;
15228;SDS011;7717;47.792;12.076;2024-01-16T08:41:22;13.40;;;6.53;;
15228;SDS011;7717;47.792;12.076;2024-01-16T08:43:47;8.77;;;5.77;;
15228;SDS011;7717;47.792;12.076;2024-01-16T08:46:13;8.87;;;5.10;;
15228;SDS011;7717;47.792;12.076;2024-01-16T08:48:38;17.00;;;9.97;;
15228;SDS011;7717;47.792;12.076;2024-01-16T08:51:07;21.97;;;13.33;;
15228;SDS011;7717;47.792;12.076;2024-01-16T08:53:36;11.73;;;7.80;;
15228;SDS011;7717;47.792;12.076;2024-01-16T08:56:02;16.53;;;10.20;;
15228;SDS011;7717;47.792;12.076;2024-01-16T08:58:27;9.63;;;6.83;;
15228;SDS011;7717;47.792;12.076;2024-01-16T09:00:53;7.20;;;5.67;;
15228;SDS011;7717;47.792;12.076;2024-01-16T09:03:18;4.03;;;2.97;;
15228;SDS011;7717;47.792;12.076;2024-01-16T09:05:43;6.20;;;3.43;;
15228;SDS011;7717;47.792;12.076;2024-01-16T09:08:09;5.63;;;4.13;;
15228;SDS011;7717;47.792;12.076;2024-01-16T09:10:34;4.77;;;3.63;;
15228;SDS011;7717;47.792;12.076;2024-01-16T09:13:00;3.97;;;3.33;;
15228;SDS011;7717;47.792;12.076;2024-01-16T09:15:25;3.57;;;3.00;;
15228;SDS011;7717;47.792;12.076;2024-01-16T09:17:51;4.37;;;3.10;;
15228;SDS011;7717;47.792;12.076;2024-01-16T09:20:16;5.60;;;3.73;;
15228;SDS011;7717;47.792;12.076;2024-01-16T09:22:42;8.77;;;5.73;;
15228;SDS011;7717;47.792;12.076;2024-01-16T09:25:07;6.17;;;4.40;;
15228;SDS011;7717;47.792;12.076;2024-01-16T09:27:33;5.20;;;3.37;;
15228;SDS011;7717;47.792;12.076;2024-01-16T09:29:58;3.10;;;2.80;;
15228;SDS011;7717;47.792;12.076;2024-01-16T09:32:27;2.60;;;2.20;;
15228;SDS011;7717;47.792;12.076;2024-01-16T09:34:52;3.00;;;2.67;;
15228;SDS011;7717;47.792;12.076;2024-01-16T09:37:18;5.00;;;2.70;;
15228;SDS011;7717;47.792;12.076;2024-01-16T09:39:44;3.33;;;3.03;;
15228;SDS011;7717;47.792;12.076;2024-01-16T09:42:09;3.17;;;2.80;;
15228;SDS011;7717;47.792;12.076;2024-01-16T09:44:35;2.97;;;2.60;;
15228;SDS011;7717;47.792;12.076;2024-01-16T09:47:01;3.57;;;3.27;;
15228;SDS011;7717;47.792;12.076;2024-01-16T09:49:29;4.77;;;2.93;;
15228;SDS011;7717;47.792;12.076;2024-01-16T09:51:54;5.90;;;4.20;;
15228;SDS011;7717;47.792;12.076;2024-01-16T09:54:20;3.73;;;3.00;;
15228;SDS011;7717;47.792;12.076;2024-01-16T09:56:45;4.37;;;3.80;;
15228;SDS011;7717;47.792;12.076;2024-01-16T09:59:17;4.43;;;3.00;;
15228;SDS011;7717;47.792;12.076;2024-01-16T10:01:45;5.30;;;3.40;;
15228;SDS011;7717;47.792;12.076;2024-01-16T10:04:15;9.47;;;3.87;;
15228;SDS011;7717;47.792;12.076;2024-01-16T10:06:40;3.07;;;2.70;;
15228;SDS011;7717;47.792;12.076;2024-01-16T10:09:13;3.47;;;3.17;;
15228;SDS011;7717;47.792;12.076;2024-01-16T10:11:41;3.57;;;3.17;;
15228;SDS011;7717;47.792;12.076;2024-01-16T10:14:07;5.33;;;3.43;;
15228;SDS011;7717;47.792;12.076;2024-01-16T10:19:22;4.20;;;3.30;;
15228;SDS011;7717;47.792;12.076;2024-01-16T10:21:47;4.83;;;3.60;;
15228;SDS011;7717;47.792;12.076;2024-01-16T10:24:13;5.87;;;3.57;;
15228;SDS011;7717;47.792;12.076;2024-01-16T10:26:38;3.53;;;2.63;;
15228;SDS011;7717;47.792;12.076;2024-01-16T10:29:04;4.80;;;3.60;;
15228;SDS011;7717;47.792;12.076;2024-01-16T10:31:29;5.93;;;3.53;;
15228;SDS011;7717;47.792;12.076;2024-01-16T10:33:56;6.10;;;3.50;;
15228;SDS011;7717;47.792;12.076;2024-01-16T10:36:23;3.43;;;3.00;;
15228;SDS011;7717;47.792;12.076;2024-01-16T10:38:49;4.30;;;3.40;;
15228;SDS011;7717;47.792;12.076;2024-01-16T10:41:22;4.60;;;3.50;;
15228;SDS011;7717;47.792;12.076;2024-01-16T10:43:51;4.00;;;3.53;;
15228;SDS011;7717;47.792;12.076;2024-01-16T10:46:35;4.70;;;3.83;;
15228;SDS011;7717;47.792;12.076;2024-01-16T10:49:02;4.67;;;3.80;;
15228;SDS011;7717;47.792;12.076;2024-01-16T10:51:29;4.60;;;3.50;;
15228;SDS011;7717;47.792;12.076;2024-01-16T10:53:58;4.27;;;3.87;;
15228;SDS011;7717;47.792;12.076;2024-01-16T10:56:28;8.57;;;4.10;;
15228;SDS011;7717;47.792;12.076;2024-01-16T11:01:50;8.07;;;5.20;;
15228;SDS011;7717;47.792;12.076;2024-01-16T11:04:20;6.00;;;4.37;;
15228;SDS011;7717;47.792;12.076;2024-01-16T11:06:46;6.27;;;4.23;;
15228;SDS011;7717;47.792;12.076;2024-01-16T11:09:12;4.93;;;3.53;;
15228;SDS011;7717;47.792;12.076;2024-01-16T11:11:40;4.73;;;4.03;;
15228;SDS011;7717;47.792;12.076;2024-01-16T11:14:07;4.77;;;4.00;;
15228;SDS011;7717;47.792;12.076;2024-01-16T11:16:33;4.87;;;3.70;;
15228;SDS011;7717;47.792;12.076;2024-01-16T11:18:59;4.90;;;4.00;;
15228;SDS011;7717;47.792;12.076;2024-01-16T11:21:25;5.27;;;3.80;;
15228;SDS011;7717;47.792;12.076;2024-01-16T11:23:51;4.60;;;4.17;;
15228;SDS011;7717;47.792;12.076;2024-01-16T11:26:27;4.60;;;3.93;;
15228;SDS011;7717;47.792;12.076;2024-01-16T11:28:57;4.57;;;4.17;;
15228;SDS011;7717;47.792;12.076;2024-01-16T11:33:59;3.97;;;3.43;;
15228;SDS011;7717;47.792;12.076;2024-01-16T11:39:19;4.50;;;4.10;;
15228;SDS011;7717;47.792;12.076;2024-01-16T11:47:10;4.07;;;3.67;;
15228;SDS011;7717;47.792;12.076;2024-01-16T11:49:43;7.80;;;5.60;;
15228;SDS011;7717;47.792;12.076;2024-01-16T11:52:09;5.83;;;4.70;;
15228;SDS011;7717;47.792;12.076;2024-01-16T11:54:36;5.57;;;3.97;;
15228;SDS011;7717;47.792;12.076;2024-01-16T12:00:18;7.97;;;5.60;;
15228;SDS011;7717;47.792;12.076;2024-01-16T12:02:52;7.23;;;4.40;;
15228;SDS011;7717;47.792;12.076;2024-01-16T12:05:19;4.43;;;3.27;;
15228;SDS011;7717;47.792;12.076;2024-01-16T12:07:49;4.63;;;4.23;;
15228;SDS011;7717;47.792;12.076;2024-01-16T12:10:17;5.87;;;4.07;;
15228;SDS011;7717;47.792;12.076;2024-01-16T12:12:47;5.27;;;3.50;;
15228;SDS011;7717;47.792;12.076;2024-01-16T12:15:17;4.53;;;3.33;;
15228;SDS011;7717;47.792;12.076;2024-01-16T12:20:22;3.67;;;2.97;;
15228;SDS011;7717;47.792;12.076;2024-01-16T12:22:55;5.53;;;4.33;;
15228;SDS011;7717;47.792;12.076;2024-01-16T12:25:35;3.90;;;3.13;;
15228;SDS011;7717;47.792;12.076;2024-01-16T12:28:05;4.57;;;4.00;;
15228;SDS011;7717;47.792;12.076;2024-01-16T12:30:32;8.00;;;4.70;;
15228;SDS011;7717;47.792;12.076;2024-01-16T12:33:03;3.83;;;3.47;;
15228;SDS011;7717;47.792;12.076;2024-01-16T12:35:39;7.70;;;5.67;;
15228;SDS011;7717;47.792;12.076;2024-01-16T12:38:12;7.00;;;4.17;;
15228;SDS011;7717;47.792;12.076;2024-01-16T12:40:42;4.47;;;4.07;;
15228;SDS011;7717;47.792;12.076;2024-01-16T12:43:12;8.23;;;6.70;;
15228;SDS011;7717;47.792;12.076;2024-01-16T12:45:38;9.33;;;5.57;;
15228;SDS011;7717;47.792;12.076;2024-01-16T12:48:04;6.37;;;4.93;;
15228;SDS011;7717;47.792;12.076;2024-01-16T12:50:30;6.37;;;4.30;;
15228;SDS011;7717;47.792;12.076;2024-01-16T12:53:06;6.50;;;5.90;;
15228;SDS011;7717;47.792;12.076;2024-01-16T12:55:38;4.63;;;4.23;;
15228;SDS011;7717;47.792;12.076;2024-01-16T12:58:18;6.63;;;4.80;;
15228;SDS011;7717;47.792;12.076;2024-01-16T13:00:45;5.03;;;4.03;;
15228;SDS011;7717;47.792;12.076;2024-01-16T13:03:18;7.73;;;5.07;;
15228;SDS011;7717;47.792;12.076;2024-01-16T13:05:45;8.30;;;5.83;;
15228;SDS011;7717;47.792;12.076;2024-01-16T13:08:19;6.80;;;4.90;;
15228;SDS011;7717;47.792;12.076;2024-01-16T13:13:28;7.97;;;5.60;;
15228;SDS011;7717;47.792;12.076;2024-01-16T13:15:54;7.53;;;5.30;;
15228;SDS011;7717;47.792;12.076;2024-01-16T13:18:20;7.27;;;4.90;;
15228;SDS011;7717;47.792;12.076;2024-01-16T13:20:47;8.43;;;4.67;;
15228;SDS011;7717;47.792;12.076;2024-01-16T13:23:15;7.37;;;4.57;;
15228;SDS011;7717;47.792;12.076;2024-01-16T13:25:44;6.23;;;4.30;;
15228;SDS011;7717;47.792;12.076;2024-01-16T13:28:17;7.27;;;4.27;;
15228;SDS011;7717;47.792;12.076;2024-01-16T13:30:44;4.80;;;4.30;;
15228;SDS011;7717;47.792;12.076;2024-01-16T13:33:10;5.10;;;4.53;;
15228;SDS011;7717;47.792;12.076;2024-01-16T13:35:43;8.50;;;5.47;;
15228;SDS011;7717;47.792;12.076;2024-01-16T13:38:13;5.83;;;5.03;;
15228;SDS011;7717;47.792;12.076;2024-01-16T13:40:41;7.07;;;5.30;;
15228;SDS011;7717;47.792;12.076;2024-01-16T13:43:06;6.47;;;5.10;;
15228;SDS011;7717;47.792;12.076;2024-01-16T13:45:32;7.90;;;5.10;;
15228;SDS011;7717;47.792;12.076;2024-01-16T13:48:01;8.50;;;5.00;;
15228;SDS011;7717;47.792;12.076;2024-01-16T13:50:27;5.50;;;4.40;;
15228;SDS011;7717;47.792;12.076;2024-01-16T13:52:53;6.53;;;4.73;;
15228;SDS011;7717;47.792;12.076;2024-01-16T13:55:19;6.37;;;4.67;;
15228;SDS011;7717;47.792;12.076;2024-01-16T13:57:45;6.60;;;4.60;;
15228;SDS011;7717;47.792;12.076;2024-01-16T14:00:14;5.50;;;4.20;;
15228;SDS011;7717;47.792;12.076;2024-01-16T14:02:41;6.87;;;4.70;;
15228;SDS011;7717;47.792;12.076;2024-01-16T14:05:10;7.53;;;5.17;;
15228;SDS011;7717;47.792;12.076;2024-01-16T14:07:40;5.83;;;4.83;;
15228;SDS011;7717;47.792;12.076;2024-01-16T14:10:09;5.23;;;4.50;;
15228;SDS011;7717;47.792;12.076;2024-01-16T14:12:37;5.47;;;4.83;;
15228;SDS011;7717;47.792;12.076;2024-01-16T14:15:03;6.00;;;5.10;;
15228;SDS011;7717;47.792;12.076;2024-01-16T14:17:34;5.97;;;4.83;;
15228;SDS011;7717;47.792;12.076;2024-01-16T14:20:00;8.57;;;4.83;;
15228;SDS011;7717;47.792;12.076;2024-01-16T14:22:25;7.87;;;4.87;;
15228;SDS011;7717;47.792;12.076;2024-01-16T14:24:52;7.10;;;5.00;;
15228;SDS011;7717;47.792;12.076;2024-01-16T14:27:18;6.73;;;5.50;;
15228;SDS011;7717;47.792;12.076;2024-01-16T14:29:44;5.33;;;4.77;;
15228;SDS011;7717;47.792;12.076;2024-01-16T14:32:09;6.23;;;4.80;;
15228;SDS011;7717;47.792;12.076;2024-01-16T14:34:35;6.50;;;5.23;;
15228;SDS011;7717;47.792;12.076;2024-01-16T14:37:00;7.13;;;5.13;;
15228;SDS011;7717;47.792;12.076;2024-01-16T14:39:26;7.07;;;4.80;;
15228;SDS011;7717;47.792;12.076;2024-01-16T14:41:54;7.20;;;4.97;;
15228;SDS011;7717;47.792;12.076;2024-01-16T14:44:20;6.90;;;5.07;;
15228;SDS011;7717;47.792;12.076;2024-01-16T14:46:45;8.30;;;4.80;;
15228;SDS011;7717;47.792;12.076;2024-01-16T14:49:10;6.33;;;5.17;;
15228;SDS011;7717;47.792;12.076;2024-01-16T14:51:36;7.33;;;5.00;;
15228;SDS011;7717;47.792;12.076;2024-01-16T14:54:03;6.13;;;4.47;;
15228;SDS011;7717;47.792;12.076;2024-01-16T14:56:29;5.73;;;4.50;;
15228;SDS011;7717;47.792;12.076;2024-01-16T14:58:56;7.63;;;4.57;;
15228;SDS011;7717;47.792;12.076;2024-01-16T15:01:22;14.63;;;4.43;;
15228;SDS011;7717;47.792;12.076;2024-01-16T15:03:48;5.43;;;4.40;;
15228;SDS011;7717;47.792;12.076;2024-01-16T15:06:14;6.40;;;4.43;;